Latest Weather Observations for Broome Port

IDW60801

Issued at 2:02 pm WST Friday 29 May 2015 (issued every 30 minutes, with the page automatically refreshed every 10 minutes)

About weather observations | Map of weather stations | Latest weather observations for WA | Other Formats
Station Details ID: 003102 Name: BROOME NTC AWS Lat: -18.00 Lon: 122.22 Height: 0.0 m
Data from the previous 72 hours. | See also: Recent months for locations in Western Australia
Date/Time
WST
Temp
°C
App
Temp
°C
Dew
Point
Rel
Hum
%
Delta-T
°C
Wind Press
QNH
hPa
Press
MSL
hPa
Rain
since 9 am
mm
Dir
 
Spd
km/h
Gust
km/h
Spd
kts
Gust
kts
29/02:00pm 30.6 - - - - WSW 7 9 4 5 1011.8 1011.7 -
29/01:30pm 31.7 - - - - SSW 4 4 2 2 1011.9 1011.8 -
29/01:00pm 30.1 - - - - SSW 6 7 3 4 1012.2 1012.1 -
29/12:30pm 28.3 - - - - SSW 6 9 3 5 1012.6 1012.5 -
29/12:00pm 27.5 - - - - SSW 7 9 4 5 1013.1 1013.1 -
29/11:30am 27.4 - - - - SSW 7 9 4 5 1013.5 1013.5 -
29/11:00am 25.6 - - - - SSE 6 7 3 4 1014.0 1014.0 -
29/10:30am 24.9 - - - - ESE 6 9 3 5 1014.2 1014.2 -
29/10:00am 24.6 - - - - E 7 11 4 6 1014.8 1014.8 -
29/09:30am 24.7 - - - - ESE 7 17 4 9 1015.0 1015.0 -
29/09:00am 23.4 - - - - ESE 15 20 8 11 1015.2 1015.2 -
29/08:30am 22.9 - - - - SE 13 17 7 9 1015.1 1015.1 -
29/08:00am 23.3 - - - - SE 13 19 7 10 1014.9 1014.9 -
29/07:30am 22.8 - - - - SE 15 20 8 11 1014.5 1014.5 -
29/07:00am 22.7 - - - - SSE 24 30 13 16 1014.1 1014.1 -
29/06:30am 23.5 - - - - SSE 22 30 12 16 1013.6 1013.6 -
29/06:00am 24.1 - - - - SSE 19 24 10 13 1013.2 1013.2 -
29/05:30am 24.4 - - - - S 13 15 7 8 1013.0 1013.0 -
29/05:00am 23.7 - - - - S 11 13 6 7 1012.8 1012.7 -
29/04:30am 23.5 - - - - S 11 13 6 7 1012.7 1012.6 -
29/04:00am 23.7 - - - - SSW 11 13 6 7 1012.7 1012.6 -
29/03:30am 23.6 - - - - SSW 11 13 6 7 1012.7 1012.6 -
29/03:00am 23.6 - - - - SSW 7 9 4 5 1012.7 1012.6 -
29/02:30am 23.6 - - - - SSE 2 6 1 3 1012.6 1012.5 -
29/02:00am 23.7 - - - - SE 7 9 4 5 1012.9 1012.8 -
29/01:30am 23.6 - - - - SE 7 9 4 5 1013.1 1013.1 -
29/01:00am 24.4 - - - - SW 6 7 3 4 1013.2 1013.2 -
29/12:30am 24.3 - - - - CALM 0 2 0 1 1013.4 1013.4 -
29/12:00am 24.4 - - - - SE 4 6 2 3 1013.7 1013.7 -
 
Date/Time
WST
Temp
°C
App
Temp
°C
Dew
Point
Rel
Hum
%
Delta-T
°C
Wind Press
QNH
hPa
Press
MSL
hPa
Rain
since 9 am
mm
Dir
 
Spd
km/h
Gust
km/h
Spd
kts
Gust
kts
28/11:30pm 25.1 - - - - S 6 9 3 5 1013.8 1013.8 -
28/11:00pm 24.8 - - - - SW 6 7 3 4 1014.1 1014.1 -
28/10:30pm 25.0 - - - - SW 9 13 5 7 1014.2 1014.2 -
28/10:00pm 24.8 - - - - SSW 11 13 6 7 1014.2 1014.2 -
28/09:30pm 24.8 - - - - SW 13 15 7 8 1014.2 1014.2 -
28/09:00pm 25.1 - - - - SW 13 15 7 8 1014.0 1014.0 -
28/08:30pm 25.5 - - - - SW 13 17 7 9 1013.9 1013.9 -
28/08:00pm 26.4 - - - - WSW 17 19 9 10 1013.6 1013.6 -
28/07:30pm 26.0 - - - - WSW 17 20 9 11 1013.2 1013.2 -
28/07:00pm 25.5 - - - - WSW 13 15 7 8 1012.8 1012.7 -
28/06:30pm 25.8 - - - - WSW 17 20 9 11 1012.4 1012.3 -
28/06:00pm 25.8 - - - - WSW 17 22 9 12 1012.2 1012.1 -
28/05:30pm 26.4 - - - - WSW 15 17 8 9 1012.0 1011.9 -
28/05:00pm 30.7 - - - - W 9 9 5 5 1011.7 1011.6 -
28/04:30pm 31.0 - - - - WSW 7 9 4 5 1011.4 1011.3 -
28/04:00pm 31.2 - - - - SW 9 11 5 6 1011.2 1011.1 -
28/03:30pm 31.6 - - - - SSW 7 9 4 5 1011.1 1011.0 -
28/03:00pm 31.7 - - - - SSW 7 7 4 4 1011.1 1011.0 -
28/02:30pm 30.7 - - - - S 9 9 5 5 1011.0 1010.9 -
28/02:00pm 30.1 - - - - S 9 9 5 5 1011.1 1011.0 -
28/01:30pm 29.3 - - - - S 7 7 4 4 1011.2 1011.1 -
28/01:00pm 28.5 - - - - S 6 7 3 4 1011.6 1011.5 -
28/12:30pm 27.6 - - - - S 6 7 3 4 1012.0 1011.9 -
28/12:00pm 26.8 - - - - S 6 7 3 4 1012.6 1012.5 -
28/11:30am 26.9 - - - - SE 9 9 5 5 1013.1 1013.1 -
28/11:00am 25.8 - - - - ESE 13 15 7 8 1013.5 1013.5 -
28/10:30am 24.9 - - - - ESE 13 15 7 8 1013.9 1013.9 -
28/10:00am 23.8 - - - - ESE 17 19 9 10 1014.3 1014.3 -
28/09:30am 23.1 - - - - ESE 20 24 11 13 1014.5 1014.5 -
28/09:00am 22.4 - - - - ESE 20 24 11 13 1014.7 1014.7 -
28/08:30am 22.1 - - - - ESE 24 32 13 17 1014.5 1014.5 -
28/08:00am 21.9 - - - - ESE 24 28 13 15 1014.6 1014.6 -
28/07:30am 22.0 - - - - ESE 22 26 12 14 1014.5 1014.5 -
28/07:00am 22.3 - - - - SE 24 28 13 15 1014.3 1014.3 -
28/06:30am 22.5 - - - - SE 30 39 16 21 1013.9 1013.9 -
28/06:00am 22.5 - - - - SE 24 30 13 16 1013.8 1013.8 -
28/05:30am 22.3 - - - - SSE 24 32 13 17 1013.5 1013.5 -
28/05:00am 22.5 - - - - SSE 28 35 15 19 1013.2 1013.2 -
28/04:30am 22.7 - - - - SSE 28 35 15 19 1012.6 1012.5 -
28/04:00am 22.6 - - - - SSE 32 39 17 21 1012.3 1012.2 -
28/03:30am 22.8 - - - - SSE 32 37 17 20 1012.5 1012.4 -
28/03:00am 23.0 - - - - S 30 39 16 21 1012.6 1012.5 -
28/02:30am 23.1 - - - - S 26 32 14 17 1012.9 1012.8 -
28/02:00am 23.3 - - - - SSW 22 26 12 14 1012.9 1012.8 -
28/01:30am 23.8 - - - - SSW 20 24 11 13 1013.4 1013.4 -
28/01:00am 24.0 - - - - S 11 19 6 10 1013.5 1013.5 -
28/12:30am 23.3 - - - - SSE 9 11 5 6 1013.2 1013.2 -
28/12:00am 24.2 - - - - S 6 6 3 3 1013.3 1013.3 -
 
Date/Time
WST
Temp
°C
App
Temp
°C
Dew
Point
Rel
Hum
%
Delta-T
°C
Wind Press
QNH
hPa
Press
MSL
hPa
Rain
since 9 am
mm
Dir
 
Spd
km/h
Gust
km/h
Spd
kts
Gust
kts
27/11:30pm 24.4 - - - - ESE 2 4 1 2 1013.4 1013.4 -
27/11:00pm 24.4 - - - - SSE 2 6 1 3 1013.4 1013.4 -
27/10:30pm 25.1 - - - - WSW 4 6 2 3 1013.4 1013.4 -
27/10:00pm 24.9 - - - - WNW 4 6 2 3 1013.3 1013.3 -
27/09:30pm 25.2 - - - - W 6 6 3 3 1013.5 1013.5 -
27/09:00pm 24.9 - - - - WNW 4 7 2 4 1013.4 1013.4 -
27/08:30pm 25.6 - - - - WSW 11 13 6 7 1013.3 1013.3 -
27/08:00pm 25.8 - - - - WSW 13 13 7 7 1013.2 1013.2 -
27/07:30pm 25.9 - - - - W 13 17 7 9 1012.9 1012.8 -
27/07:00pm 25.9 - - - - W 13 17 7 9 1012.8 1012.7 -
27/06:30pm 26.5 - - - - W 17 22 9 12 1012.4 1012.3 -
27/06:00pm 26.8 - - - - WNW 19 22 10 12 1012.0 1011.9 -
27/05:30pm 27.0 - - - - W 17 20 9 11 1011.6 1011.5 -
27/05:00pm 26.9 - - - - WNW 17 20 9 11 1011.2 1011.1 -
27/04:30pm 26.5 - - - - WNW 19 22 10 12 1010.9 1010.8 -
27/04:00pm 27.6 - - - - WNW 19 20 10 11 1010.8 1010.7 -
27/03:30pm 26.7 - - - - WNW 17 19 9 10 1010.7 1010.6 -
27/03:00pm 28.0 - - - - WNW 11 11 6 6 1010.5 1010.4 -
27/02:30pm 27.3 - - - - WNW 11 13 6 7 1010.6 1010.5 -
27/02:00pm 27.0 - - - - WNW 13 15 7 8 1010.8 1010.7 -
27/01:30pm 26.2 - - - - WNW 15 17 8 9 1011.1 1011.0 -
27/01:00pm 26.3 - - - - WNW 13 15 7 8 1011.5 1011.4 -
27/12:30pm 26.7 - - - - WNW 11 13 6 7 1012.1 1012.0 -
27/12:00pm 27.2 - - - - WSW 4 6 2 3 1012.5 1012.4 -
27/11:30am 26.6 - - - - SE 4 4 2 2 1013.0 1013.0 -
27/11:00am 24.6 - - - - SE 6 6 3 3 1013.6 1013.6 -
27/10:30am 23.9 - - - - ESE 2 4 1 2 1014.0 1014.0 -
27/10:00am 24.2 - - - - SE 6 7 3 4 1014.4 1014.4 -
27/09:30am 23.4 - - - - ESE 9 11 5 6 1014.8 1014.8 -
27/09:00am 23.6 - - - - - - - - - 1014.9 1014.9 -

Other Formats:

Comma delimited format used in spreadsheet applications
http://www.bom.gov.au/fwo/IDW60801/IDW60801.95202.axf

JavaScript Object Notation format (JSON) in row-major order
http://www.bom.gov.au/fwo/IDW60801/IDW60801.95202.json